createdAt,value
2022-11-20T00:00:58.999Z,12.70
2022-11-20T00:03:27.187Z,12.47
2022-11-20T00:05:54.879Z,13.13
2022-11-20T00:08:23.940Z,12.27
2022-11-20T00:10:51.689Z,11.97
2022-11-20T00:13:19.411Z,11.47
2022-11-20T00:15:47.247Z,12.23
2022-11-20T00:18:15.031Z,11.60
2022-11-20T00:20:42.753Z,12.60
2022-11-20T00:23:10.452Z,12.10
2022-11-20T00:25:39.546Z,12.50
2022-11-20T00:28:07.439Z,12.23
2022-11-20T00:30:35.201Z,11.77
2022-11-20T00:33:02.950Z,11.93
2022-11-20T00:35:30.753Z,12.30
2022-11-20T00:37:58.451Z,11.57
2022-11-20T00:40:26.192Z,11.40
2022-11-20T00:42:55.325Z,12.40
2022-11-20T00:45:23.097Z,11.57
2022-11-20T00:47:50.828Z,11.80
2022-11-20T00:50:18.668Z,12.60
2022-11-20T00:52:46.431Z,12.57
2022-11-20T00:55:14.245Z,13.10
2022-11-20T00:57:42.021Z,12.03
2022-11-20T01:00:12.187Z,12.40
2022-11-20T01:02:39.942Z,12.23
2022-11-20T01:05:08.101Z,12.07
2022-11-20T01:07:35.851Z,12.10
2022-11-20T01:10:04.299Z,11.33
2022-11-20T01:12:32.018Z,11.70
2022-11-20T01:14:59.737Z,11.53
2022-11-20T01:17:28.784Z,11.97
2022-11-20T01:19:56.590Z,12.20
2022-11-20T01:22:24.428Z,12.13
2022-11-20T01:24:52.203Z,12.70
2022-11-20T01:27:19.948Z,12.17
2022-11-20T01:29:47.751Z,12.23
2022-11-20T01:32:15.601Z,12.30
2022-11-20T01:34:44.691Z,12.20
2022-11-20T01:37:12.474Z,11.83
2022-11-20T01:39:40.244Z,11.93
2022-11-20T01:42:27.283Z,11.13
2022-11-20T01:44:58.264Z,10.90
2022-11-20T01:47:37.426Z,11.20
2022-11-20T01:50:13.619Z,12.03
2022-11-20T01:52:45.068Z,11.53
2022-11-20T01:55:17.013Z,12.33
2022-11-20T01:57:47.610Z,12.10
2022-11-20T02:00:18.252Z,11.50
2022-11-20T02:02:50.229Z,11.87
2022-11-20T02:05:26.077Z,11.07
2022-11-20T02:07:56.363Z,11.93
2022-11-20T02:10:24.105Z,11.87
2022-11-20T02:13:09.653Z,11.97
2022-11-20T02:15:37.473Z,11.87
2022-11-20T02:18:06.438Z,11.97
2022-11-20T02:20:35.621Z,12.17
2022-11-20T02:23:10.137Z,11.97
2022-11-20T02:25:40.525Z,10.93
2022-11-20T02:28:08.362Z,12.17
2022-11-20T02:30:36.074Z,11.40
2022-11-20T02:33:03.812Z,12.67
2022-11-20T02:35:45.974Z,11.47
2022-11-20T02:38:14.012Z,11.17
2022-11-20T02:40:43.240Z,11.20
2022-11-20T02:43:11.537Z,11.80
2022-11-20T02:45:39.518Z,11.67
2022-11-20T02:48:08.634Z,12.00
2022-11-20T02:50:40.021Z,11.90
2022-11-20T02:53:08.617Z,11.67
2022-11-20T02:55:37.136Z,11.13
2022-11-20T02:58:06.285Z,12.33
2022-11-20T03:00:34.486Z,11.17
2022-11-20T03:03:02.206Z,11.40
2022-11-20T03:05:30.024Z,11.70
2022-11-20T03:07:57.736Z,10.67
2022-11-20T03:10:25.468Z,10.47
2022-11-20T03:12:55.314Z,11.27
2022-11-20T03:15:25.087Z,11.53
2022-11-20T03:17:55.665Z,9.93
2022-11-20T03:20:23.459Z,10.43
2022-11-20T03:22:51.209Z,11.33
2022-11-20T03:25:18.961Z,10.60
2022-11-20T03:27:46.809Z,11.40
2022-11-20T03:30:15.116Z,11.23
2022-11-20T03:32:44.439Z,12.70
2022-11-20T03:35:12.138Z,11.10
2022-11-20T03:37:39.962Z,11.73
2022-11-20T03:40:08.897Z,11.97
2022-11-20T03:42:48.578Z,11.30
2022-11-20T03:45:18.105Z,11.63
2022-11-20T03:47:48.109Z,11.80
2022-11-20T03:50:17.109Z,11.47
2022-11-20T03:52:44.858Z,11.40
2022-11-20T03:55:12.568Z,11.93
2022-11-20T03:57:40.319Z,11.90
2022-11-20T04:00:09.100Z,12.27
2022-11-20T04:02:36.847Z,12.93
2022-11-20T04:05:06.584Z,12.40
2022-11-20T04:07:36.399Z,11.87
2022-11-20T04:10:04.845Z,11.43
2022-11-20T04:12:34.506Z,11.67
2022-11-20T04:15:02.272Z,11.77
2022-11-20T04:17:30.019Z,12.30
2022-11-20T04:19:57.749Z,11.43
2022-11-20T04:22:26.985Z,11.27
2022-11-20T04:24:54.767Z,12.00
2022-11-20T04:27:22.836Z,12.43
2022-11-20T04:29:50.555Z,11.20
2022-11-20T04:32:18.324Z,11.90
2022-11-20T04:34:46.040Z,11.93
2022-11-20T04:37:13.785Z,11.63
2022-11-20T04:39:43.053Z,12.13
2022-11-20T04:42:29.076Z,10.63
2022-11-20T04:44:57.117Z,11.77
2022-11-20T04:47:24.878Z,11.40
2022-11-20T04:49:52.804Z,10.93
2022-11-20T04:52:20.719Z,11.30
2022-11-20T04:54:49.948Z,11.63
2022-11-20T04:57:17.654Z,10.83
2022-11-20T04:59:45.404Z,12.13
2022-11-20T05:02:13.656Z,11.03
2022-11-20T05:04:41.362Z,12.30
2022-11-20T05:07:09.162Z,12.13
2022-11-20T05:09:36.952Z,11.60
2022-11-20T05:12:06.537Z,11.90
2022-11-20T05:14:34.344Z,11.07
2022-11-20T05:17:02.249Z,11.10
2022-11-20T05:19:29.992Z,11.60
2022-11-20T05:21:58.600Z,11.73
2022-11-20T05:24:26.325Z,11.50
2022-11-20T05:26:54.057Z,12.17
2022-11-20T05:29:23.468Z,11.73
2022-11-20T05:31:51.265Z,12.27
2022-11-20T05:34:18.949Z,12.00
2022-11-20T05:36:46.652Z,11.20
2022-11-20T05:39:14.335Z,11.90
2022-11-20T05:41:42.061Z,11.63
2022-11-20T05:44:12.744Z,11.97
2022-11-20T05:46:41.860Z,11.80
2022-11-20T05:49:09.597Z,13.17
2022-11-20T05:51:37.276Z,12.10
2022-11-20T05:54:05.004Z,12.90
2022-11-20T05:56:33.571Z,12.00
2022-11-20T05:59:01.291Z,11.73
2022-11-20T06:01:29.034Z,12.00
2022-11-20T06:03:58.166Z,12.40
2022-11-20T06:06:26.948Z,12.70
2022-11-20T06:08:54.825Z,12.37
2022-11-20T06:11:22.896Z,13.23
2022-11-20T06:13:53.620Z,12.10
2022-11-20T06:16:22.718Z,12.57
2022-11-20T06:18:50.763Z,13.23
2022-11-20T06:21:22.170Z,12.57
2022-11-20T06:23:50.928Z,13.00
2022-11-20T06:26:20.813Z,11.00
2022-11-20T06:28:48.807Z,13.13
2022-11-20T06:31:18.767Z,11.80
2022-11-20T06:33:50.322Z,12.60
2022-11-20T06:36:24.214Z,13.40
2022-11-20T06:38:52.137Z,12.23
2022-11-20T06:41:22.257Z,12.20
2022-11-20T06:43:50.656Z,12.40
2022-11-20T06:46:19.712Z,12.80
2022-11-20T06:48:48.053Z,11.67
2022-11-20T06:51:16.176Z,12.00
2022-11-20T06:53:45.653Z,11.87
2022-11-20T06:56:13.378Z,12.70
2022-11-20T06:58:41.559Z,12.33
2022-11-20T07:01:11.784Z,12.43
2022-11-20T07:03:40.335Z,12.87
2022-11-20T07:06:11.728Z,12.67
2022-11-20T07:08:39.497Z,13.13
2022-11-20T07:11:09.100Z,13.73
2022-11-20T07:13:36.941Z,12.53
2022-11-20T07:16:06.843Z,12.00
2022-11-20T07:18:35.149Z,13.40
2022-11-20T07:21:08.919Z,13.07
2022-11-20T07:23:36.796Z,12.90
2022-11-20T07:26:05.926Z,12.30
2022-11-20T07:28:35.730Z,13.17
2022-11-20T07:31:04.590Z,12.80
2022-11-20T07:33:32.486Z,12.83
2022-11-20T07:36:00.651Z,13.77
2022-11-20T07:38:28.433Z,13.43
2022-11-20T07:40:57.197Z,13.43
2022-11-20T07:43:26.111Z,13.43
2022-11-20T07:45:57.060Z,14.17
2022-11-20T07:48:25.040Z,14.00
2022-11-20T07:50:55.975Z,13.47
2022-11-20T07:53:23.793Z,13.17
2022-11-20T07:55:53.279Z,13.57
2022-11-20T07:58:21.225Z,14.23
2022-11-20T08:00:49.200Z,13.63
2022-11-20T08:03:24.421Z,12.67
2022-11-20T08:05:52.954Z,13.40
2022-11-20T08:08:20.824Z,13.77
2022-11-20T08:10:48.580Z,13.53
2022-11-20T08:13:33.849Z,13.60
2022-11-20T08:16:01.606Z,13.87
2022-11-20T08:18:32.500Z,13.90
2022-11-20T08:21:03.201Z,14.07
2022-11-20T08:23:31.161Z,13.83
2022-11-20T08:25:58.895Z,13.43
2022-11-20T08:28:26.607Z,14.03
2022-11-20T08:31:00.468Z,12.97
2022-11-20T08:33:29.831Z,13.83
2022-11-20T08:36:00.961Z,13.70
2022-11-20T08:38:28.760Z,12.73
2022-11-20T08:41:16.702Z,13.90
2022-11-20T08:43:44.574Z,13.70
2022-11-20T08:46:12.793Z,13.63
2022-11-20T08:48:43.413Z,14.47
2022-11-20T08:51:13.911Z,13.77
2022-11-20T08:53:42.155Z,13.80
2022-11-20T08:56:12.075Z,15.33
2022-11-20T08:59:02.304Z,13.60
2022-11-20T09:01:28.633Z,14.93
2022-11-20T09:04:00.720Z,14.50
2022-11-20T09:06:31.600Z,14.80
2022-11-20T09:09:02.121Z,13.67
2022-11-20T09:11:34.214Z,14.23
2022-11-20T09:14:03.747Z,13.70
2022-11-20T09:16:31.808Z,15.13
2022-11-20T09:19:28.589Z,14.80
2022-11-20T09:21:58.269Z,14.10
2022-11-20T09:24:40.666Z,14.63
2022-11-20T09:27:08.754Z,15.07
2022-11-20T09:29:36.557Z,14.90
2022-11-20T09:32:04.369Z,14.30
2022-11-20T09:34:33.590Z,14.73
2022-11-20T09:37:04.530Z,15.00
2022-11-20T09:39:34.680Z,15.03
2022-11-20T09:42:23.000Z,14.37
2022-11-20T09:45:12.473Z,14.30
2022-11-20T09:47:53.136Z,15.20
2022-11-20T09:50:33.009Z,14.20
2022-11-20T09:53:14.011Z,14.33
2022-11-20T09:55:42.339Z,14.30
2022-11-20T09:58:17.951Z,14.13
2022-11-20T10:00:46.544Z,14.57
2022-11-20T10:03:19.854Z,14.23
2022-11-20T10:05:53.212Z,14.70
2022-11-20T10:08:24.824Z,15.20
2022-11-20T10:10:58.755Z,13.50
2022-11-20T10:13:37.972Z,13.27
2022-11-20T10:16:19.071Z,12.67
2022-11-20T10:19:02.836Z,14.63
2022-11-20T10:21:43.347Z,14.40
2022-11-20T10:24:31.582Z,14.47
2022-11-20T10:27:16.477Z,14.63
2022-11-20T10:29:48.398Z,14.60
2022-11-20T10:32:21.587Z,15.07
2022-11-20T10:34:55.063Z,15.87
2022-11-20T10:37:26.407Z,14.67
2022-11-20T10:40:02.705Z,15.27
2022-11-20T10:42:34.699Z,14.63
2022-11-20T10:45:15.553Z,15.27
2022-11-20T10:47:43.705Z,16.03
2022-11-20T10:50:21.844Z,14.30
2022-11-20T10:53:01.031Z,15.17
2022-11-20T10:55:37.933Z,16.40
2022-11-20T10:58:16.190Z,15.57
2022-11-20T11:00:44.168Z,15.50
2022-11-20T11:03:24.587Z,16.33
2022-11-20T11:06:00.583Z,15.03
2022-11-20T11:08:36.350Z,15.33
2022-11-20T11:11:18.041Z,15.57
2022-11-20T11:13:45.910Z,16.27
2022-11-20T11:16:23.569Z,14.87
2022-11-20T11:18:51.804Z,16.00
2022-11-20T11:21:26.093Z,16.07
2022-11-20T11:24:19.621Z,15.40
2022-11-20T11:26:59.902Z,16.23
2022-11-20T11:29:30.413Z,15.80
2022-11-20T11:32:07.444Z,16.17
2022-11-20T11:34:35.588Z,15.60
2022-11-20T11:37:05.276Z,16.33
2022-11-20T11:39:35.674Z,17.17
2022-11-20T11:42:03.712Z,17.23
2022-11-20T11:44:51.520Z,18.13
2022-11-20T11:47:25.831Z,17.80
2022-11-20T11:50:03.479Z,18.03
2022-11-20T11:52:33.250Z,16.03
2022-11-20T11:55:10.219Z,16.73
2022-11-20T11:57:45.623Z,17.97
2022-11-20T12:00:16.278Z,17.10
2022-11-20T12:02:56.190Z,16.53
2022-11-20T12:05:26.897Z,16.43
2022-11-20T12:07:59.872Z,17.03
2022-11-20T12:10:43.295Z,18.10
2022-11-20T12:13:22.644Z,16.97
2022-11-20T12:15:50.661Z,16.60
2022-11-20T12:18:21.145Z,16.87
2022-11-20T12:20:59.630Z,18.40
2022-11-20T12:23:36.642Z,16.30
2022-11-20T12:26:16.062Z,18.03
2022-11-20T12:29:00.185Z,16.87
2022-11-20T12:31:52.421Z,15.33
2022-11-20T12:34:41.862Z,16.37
2022-11-20T12:37:18.396Z,15.77
2022-11-20T12:39:50.941Z,15.53
2022-11-20T12:43:07.679Z,17.20
2022-11-20T12:46:07.576Z,17.77
2022-11-20T12:48:51.774Z,16.03
2022-11-20T12:51:34.229Z,16.23
2022-11-20T12:54:26.338Z,16.40
2022-11-20T12:57:04.203Z,17.40
2022-11-20T12:59:58.357Z,16.93
2022-11-20T13:02:32.535Z,17.13
2022-11-20T13:05:18.015Z,15.97
2022-11-20T13:07:47.012Z,14.57
2022-11-20T13:10:20.804Z,15.97
2022-11-20T13:12:53.715Z,16.50
2022-11-20T13:15:38.549Z,15.37
2022-11-20T13:18:11.554Z,16.07
2022-11-20T13:20:45.328Z,14.63
2022-11-20T13:23:25.786Z,15.47
2022-11-20T13:26:04.392Z,14.47
2022-11-20T13:28:35.422Z,14.97
2022-11-20T13:31:07.878Z,15.03
2022-11-20T13:33:38.674Z,14.47
2022-11-20T13:36:11.730Z,15.17
2022-11-20T13:38:46.076Z,14.47
2022-11-20T13:41:34.872Z,14.47
2022-11-20T13:44:13.216Z,14.83
2022-11-20T13:46:45.459Z,15.43
2022-11-20T13:49:20.625Z,14.03
2022-11-20T13:51:51.635Z,14.27
2022-11-20T13:54:53.597Z,14.80
2022-11-20T13:57:51.812Z,14.43
2022-11-20T14:00:21.938Z,15.13
2022-11-20T14:03:03.004Z,14.03
2022-11-20T14:05:34.361Z,15.00
2022-11-20T14:08:06.008Z,14.20
2022-11-20T14:10:33.990Z,13.47
2022-11-20T14:13:12.930Z,14.80
2022-11-20T14:15:44.796Z,13.20
2022-11-20T14:18:16.840Z,14.20
2022-11-20T14:20:45.170Z,14.40
2022-11-20T14:23:13.270Z,14.70
2022-11-20T14:25:45.133Z,14.87
2022-11-20T14:28:25.353Z,14.30
2022-11-20T14:30:53.326Z,14.87
2022-11-20T14:33:25.795Z,14.30
2022-11-20T14:35:55.789Z,15.47
2022-11-20T14:38:27.186Z,15.77
2022-11-20T14:40:54.899Z,14.53
2022-11-20T14:43:26.255Z,13.03
2022-11-20T14:46:02.316Z,13.80
2022-11-20T14:48:36.005Z,13.63
2022-11-20T14:51:03.910Z,14.63
2022-11-20T14:53:31.657Z,13.00
2022-11-20T14:56:01.305Z,13.03
2022-11-20T14:58:30.830Z,13.67
2022-11-20T15:01:00.535Z,13.50
2022-11-20T15:03:34.993Z,13.30
2022-11-20T15:06:03.142Z,13.00
2022-11-20T15:08:31.130Z,14.53
2022-11-20T15:10:59.517Z,13.00
2022-11-20T15:13:31.532Z,12.97
2022-11-20T15:16:00.882Z,13.10
2022-11-20T15:18:34.854Z,13.53
2022-11-20T15:21:06.412Z,13.27
2022-11-20T15:23:34.197Z,13.37
2022-11-20T15:26:02.011Z,13.30
2022-11-20T15:28:33.142Z,14.73
2022-11-20T15:31:01.652Z,14.93
2022-11-20T15:33:29.424Z,14.00
2022-11-20T15:35:57.142Z,14.70
2022-11-20T15:38:26.305Z,15.37
2022-11-20T15:40:54.400Z,15.33
2022-11-20T15:43:22.192Z,18.20
2022-11-20T15:45:51.944Z,17.93
2022-11-20T15:48:22.020Z,18.23
2022-11-20T15:50:54.903Z,17.80
2022-11-20T15:53:22.680Z,18.50
2022-11-20T15:55:51.923Z,16.47
2022-11-20T15:58:19.684Z,16.17
2022-11-20T16:00:48.045Z,16.10
2022-11-20T16:03:17.378Z,15.77
2022-11-20T16:05:45.809Z,16.30
2022-11-20T16:08:13.753Z,16.30
2022-11-20T16:10:41.928Z,17.00
2022-11-20T16:13:34.077Z,18.20
2022-11-20T16:16:06.381Z,17.40
2022-11-20T16:18:35.033Z,16.97
2022-11-20T16:21:03.476Z,15.87
2022-11-20T16:23:31.418Z,15.17
2022-11-20T16:25:59.332Z,14.63
2022-11-20T16:28:28.395Z,14.80
2022-11-20T16:30:56.138Z,15.10
2022-11-20T16:33:23.845Z,14.10
2022-11-20T16:35:51.605Z,15.30
2022-11-20T16:38:19.371Z,14.80
2022-11-20T16:40:47.094Z,14.57
2022-11-20T16:43:16.029Z,14.17
2022-11-20T16:45:46.501Z,14.83
2022-11-20T16:48:16.047Z,16.50
2022-11-20T16:50:49.514Z,13.97
2022-11-20T16:53:17.561Z,15.10
2022-11-20T16:55:45.720Z,14.50
2022-11-20T16:58:13.611Z,13.27
2022-11-20T17:00:45.630Z,12.47
2022-11-20T17:03:18.091Z,12.73
2022-11-20T17:05:45.852Z,12.50
2022-11-20T17:08:13.606Z,11.90
2022-11-20T17:10:42.506Z,11.33
2022-11-20T17:13:10.258Z,11.50
2022-11-20T17:15:38.461Z,11.17
2022-11-20T17:18:06.311Z,11.27
2022-11-20T17:20:35.460Z,10.23
2022-11-20T17:23:03.162Z,10.20
2022-11-20T17:25:34.300Z,10.57
2022-11-20T17:28:02.060Z,10.33
2022-11-20T17:30:29.920Z,9.07
2022-11-20T17:32:57.658Z,10.27
2022-11-20T17:35:25.461Z,9.60
2022-11-20T17:37:54.594Z,8.40
2022-11-20T17:40:27.160Z,7.87
2022-11-20T17:42:55.617Z,8.37
2022-11-20T17:45:23.348Z,7.53
2022-11-20T17:47:51.174Z,8.23
2022-11-20T17:50:19.026Z,8.67
2022-11-20T17:52:46.869Z,7.23
2022-11-20T17:55:17.165Z,7.53
2022-11-20T17:57:53.197Z,7.10
2022-11-20T18:00:22.298Z,6.73
2022-11-20T18:02:50.463Z,5.67
2022-11-20T18:05:18.407Z,6.23
2022-11-20T18:07:46.292Z,6.67
2022-11-20T18:10:14.150Z,6.43
2022-11-20T18:12:43.943Z,6.63
2022-11-20T18:15:11.794Z,5.43
2022-11-20T18:17:39.646Z,4.47
2022-11-20T18:22:57.055Z,3.67
2022-11-20T18:25:24.907Z,4.80
2022-11-20T18:27:54.042Z,5.10
2022-11-20T18:30:22.149Z,4.27
2022-11-20T18:32:50.130Z,4.73
2022-11-20T18:35:18.136Z,4.60
2022-11-20T18:37:45.956Z,4.40
2022-11-20T18:40:14.930Z,4.20
2022-11-20T18:43:00.247Z,4.50
2022-11-20T18:45:30.364Z,3.97
2022-11-20T18:47:58.220Z,4.17
2022-11-20T18:50:26.056Z,4.17
2022-11-20T18:52:54.092Z,4.17
2022-11-20T18:55:25.074Z,3.83
2022-11-20T18:57:54.013Z,4.37
2022-11-20T19:00:21.916Z,4.10
2022-11-20T19:02:54.091Z,4.20
2022-11-20T19:05:21.910Z,4.00
2022-11-20T19:07:49.654Z,3.77
2022-11-20T19:10:20.283Z,4.10
2022-11-20T19:12:48.065Z,4.20
2022-11-20T19:15:16.024Z,4.10
2022-11-20T19:17:43.785Z,4.13
2022-11-20T19:20:13.577Z,3.83
2022-11-20T19:22:41.332Z,4.00
2022-11-20T19:25:09.675Z,4.07
2022-11-20T19:27:37.383Z,4.60
2022-11-20T19:30:06.012Z,3.97
2022-11-20T19:32:35.245Z,3.83
2022-11-20T19:35:03.589Z,3.90
2022-11-20T19:37:35.174Z,4.20
2022-11-20T19:40:04.697Z,3.90
2022-11-20T19:42:32.756Z,3.73
2022-11-20T19:45:00.544Z,4.17
2022-11-20T19:47:52.779Z,3.80
2022-11-20T19:50:16.876Z,3.33
2022-11-20T19:52:45.994Z,4.33
2022-11-20T19:55:13.833Z,4.00
2022-11-20T19:57:41.559Z,4.17
2022-11-20T20:00:10.605Z,4.50
2022-11-20T20:02:38.429Z,4.40
2022-11-20T20:05:07.027Z,4.40
2022-11-20T20:07:34.865Z,3.67
2022-11-20T20:10:04.208Z,4.67
2022-11-20T20:12:31.958Z,4.20
2022-11-20T20:14:59.706Z,4.57
2022-11-20T20:17:27.544Z,4.30
2022-11-20T20:19:55.265Z,4.27
2022-11-20T20:22:23.001Z,4.57
2022-11-20T20:24:52.010Z,4.10
2022-11-20T20:27:21.279Z,4.37
2022-11-20T20:29:49.096Z,4.30
2022-11-20T20:32:16.881Z,4.40
2022-11-20T20:34:44.619Z,4.20
2022-11-20T20:37:12.377Z,3.67
2022-11-20T20:39:40.205Z,3.30
2022-11-20T20:42:07.968Z,3.30
2022-11-20T20:44:54.696Z,3.37
2022-11-20T20:47:22.431Z,3.70
2022-11-20T20:49:50.266Z,3.67
2022-11-20T20:52:17.984Z,4.47
2022-11-20T20:54:45.857Z,4.40
2022-11-20T20:57:13.799Z,3.83
2022-11-20T20:59:42.870Z,3.80
2022-11-20T21:02:11.783Z,3.67
2022-11-20T21:04:39.570Z,3.23
2022-11-20T21:07:07.386Z,3.70
2022-11-20T21:09:35.138Z,3.77
2022-11-20T21:12:02.841Z,3.93
2022-11-20T21:14:30.601Z,4.13
2022-11-20T21:16:59.698Z,3.90
2022-11-20T21:19:27.760Z,4.70
2022-11-20T21:22:00.170Z,4.00
2022-11-20T21:24:28.705Z,3.77
2022-11-20T21:26:57.337Z,3.70
2022-11-20T21:29:27.187Z,4.47
2022-11-20T21:31:55.556Z,3.30
2022-11-20T21:34:25.746Z,3.07
2022-11-20T21:36:54.184Z,3.43
2022-11-20T21:39:22.924Z,3.17
2022-11-20T21:41:50.740Z,4.00
2022-11-20T21:44:33.805Z,3.30
2022-11-20T21:47:01.653Z,3.37
2022-11-20T21:49:30.720Z,3.00
2022-11-20T21:51:58.448Z,3.10
2022-11-20T21:54:26.578Z,3.00
2022-11-20T21:56:54.571Z,3.50
2022-11-20T21:59:22.803Z,3.27
2022-11-20T22:01:50.853Z,3.60
2022-11-20T22:04:18.579Z,3.27
2022-11-20T22:06:48.766Z,3.17
2022-11-20T22:09:16.677Z,3.93
2022-11-20T22:11:44.487Z,3.20
2022-11-20T22:14:24.083Z,3.47
2022-11-20T22:16:53.661Z,3.63
2022-11-20T22:19:22.608Z,3.77
2022-11-20T22:21:52.074Z,3.50
2022-11-20T22:24:22.272Z,3.00
2022-11-20T22:26:50.828Z,3.80
2022-11-20T22:29:20.857Z,3.50
2022-11-20T22:31:48.876Z,3.50
2022-11-20T22:34:16.641Z,3.40
2022-11-20T22:36:44.609Z,4.00
2022-11-20T22:39:14.474Z,4.07
2022-11-20T22:41:42.224Z,3.77
2022-11-20T22:44:10.237Z,4.17
2022-11-20T22:46:38.809Z,3.93
2022-11-20T22:49:08.527Z,4.67
2022-11-20T22:51:38.660Z,4.30
2022-11-20T22:54:06.818Z,4.23
2022-11-20T22:56:36.038Z,3.83
2022-11-20T22:59:04.021Z,4.33
2022-11-20T23:01:33.756Z,4.17
2022-11-20T23:04:03.597Z,4.80
2022-11-20T23:06:34.133Z,3.77
2022-11-20T23:09:02.386Z,4.10
2022-11-20T23:11:31.977Z,4.00
2022-11-20T23:14:02.776Z,3.93
2022-11-20T23:16:32.225Z,3.60
2022-11-20T23:19:01.517Z,4.07
2022-11-20T23:21:29.544Z,3.47
2022-11-20T23:23:59.041Z,3.87
2022-11-20T23:26:28.830Z,3.93
2022-11-20T23:28:58.480Z,3.90
2022-11-20T23:31:29.861Z,4.13
2022-11-20T23:33:58.248Z,4.00
2022-11-20T23:36:26.132Z,4.30
2022-11-20T23:38:53.958Z,5.53
2022-11-20T23:41:21.706Z,5.13
2022-11-20T23:43:49.488Z,5.03
2022-11-20T23:46:17.279Z,5.30
2022-11-20T23:48:46.634Z,4.60
2022-11-20T23:51:15.156Z,4.20
2022-11-20T23:53:42.917Z,4.20
2022-11-20T23:56:14.240Z,4.00
2022-11-20T23:58:42.618Z,4.20
